메인 페이지
METAR-TAF:

METAR-TAF

공항 :

Knox County Regional Airport

Rockland, 메인, 미국

위도: 44-04N, 경도: 069-06W, 고도: 17m

현재 날씨관측

예보는 1 시간 0분 전, 01:56시(UTC)에 발표되었습니다.
북동5kt
온도 4°C
습도 70%
기압 1016 hPa
시정: 16.1km
고도 8000ft 상공 흐림

METAR: KRKD 270156Z AUTO 05005KT 10SM OVC080 04/M01 A3001 RMK AO2 SLP162 T00441006

시각: 21:56 (02:56 UTC)

예보

예보는 3 시간 13분 전, 23:43시(UTC)에 발표되었습니다.
예보 대상 시간: 27일 00시부터 27일 24시까지 (UTC)
동북동5kt
시정: 10km
고도 3500ft 상공 구름 많음
27일 0200시부터 (UTC)
6kt
시정: 9.7km
고도 1500ft 상공 구름 많음
박무
27일 0600시부터 (UTC)
12kt
시정: 10km
고도 800ft 상공 흐림
27일 1100시부터 (UTC)
21kt, 순간 최대 풍속 33kt
시정: 3.2km
고도 800ft 상공 흐림
약한비
27일 1300시부터 (UTC)
24kt, 순간 최대 풍속 39kt
시정: 1.6km
고도 400ft 상공 흐림
강한비
27일 1900시부터 (UTC)
남남동13kt, 순간 최대 풍속 26kt
시정: 10km
고도 800ft 상공 흐림
27일 2100시부터 (UTC)
남서9kt
시정: 10km
고도 2500ft 상공 구름 많음

TAF: KRKD 262343Z 2700/2724 07005KT P6SM BKN035 FM270200 08006KT 6SM BR BKN015 FM270600 09012KT P6SM OVC008 FM271100 10021G33KT 2SM -RA OVC008 FM271300 09024G39KT 1SM +RA OVC004 WS020/10055KT FM271900 15013G26KT P6SM OVC008 FM272100 23009KT P6SM BKN025

4,000개 이상의 공항 관측 자료 및 예보 (METAR 및 TAF 보고).

지도상에서 검색 가능한 기상관측소가 노란 점과 빨간 점으로 표시되어 있습니다.

기상관측소 명을 보려면 표시 위로 마우스를 이동하세요.

날씨 관측과 예보를 보려면 클릭하세요.

지도 변경 : 확대하려면 엑스 표시가 있는 녹색 버튼, 축소하려면 빼기 표시가 있는 녹색 버튼, 다음 페이지의 지도를 보려면 녹색 화살표를 클릭하세요.


METAR-TAF: